Time;durP1;ratioP1;P1;durP2;ratioP2;P2;SDS_P1;SDS_P2;PMS_P1;PMS_P2;Temp;Humidity;BMP_temperature;BMP_pressure;BME280_temperature;BME280_humidity;BME280_pressure;Samples;Min_cycle;Max_cycle;Signal;HPM_P1;HPM_P2
2022/10/06 00:01:45;;;;;;;1.10;1.10;;;;;;;;;;4941956;28;20203;-63
2022/10/06 00:04:11;;;;;;;1.30;1.30;;;;;;;;;;4939952;28;20285;-63
2022/10/06 00:06:37;;;;;;;1.20;1.20;;;;;;;;;;4935588;28;20242;-63
2022/10/06 00:09:03;;;;;;;1.10;1.10;;;;;;;;;;4939488;28;20664;-62
2022/10/06 00:11:29;;;;;;;1.30;1.30;;;;;;;;;;4941109;28;20675;-63
2022/10/06 00:13:55;;;;;;;1.30;1.30;;;;;;;;;;4937572;28;20837;-62
2022/10/06 00:16:22;;;;;;;1.27;1.27;;;;;;;;;;4927155;28;20249;-63
2022/10/06 00:18:48;;;;;;;1.00;1.00;;;;;;;;;;4940681;28;20223;-62
2022/10/06 00:21:14;;;;;;;1.30;1.30;;;;;;;;;;4940411;28;20258;-62
2022/10/06 00:23:40;;;;;;;1.03;1.03;;;;;;;;;;4937332;28;20196;-62
2022/10/06 00:26:10;;;;;;;1.03;1.03;;;;;;;;;;4938584;28;21329;-62
2022/10/06 00:28:36;;;;;;;1.10;1.10;;;;;;;;;;4956690;28;20568;-63
2022/10/06 00:31:02;;;;;;;1.13;1.13;;;;;;;;;;4946772;28;20199;-62
2022/10/06 00:33:27;;;;;;;1.20;1.20;;;;;;;;;;4939010;28;20204;-62
2022/10/06 00:35:57;;;;;;;1.10;1.10;;;;;;;;;;4942394;28;20214;-61
2022/10/06 00:38:23;;;;;;;1.10;1.10;;;;;;;;;;4939624;28;20672;-61
2022/10/06 00:40:49;;;;;;;1.10;1.10;;;;;;;;;;4937865;28;20313;-62
2022/10/06 00:43:34;;;;;;;1.00;1.00;;;;;;;;;;4948831;28;20753;-63
2022/10/06 00:46:00;;;;;;;1.07;1.07;;;;;;;;;;4939309;28;20195;-61
2022/10/06 00:48:26;;;;;;;0.90;0.90;;;;;;;;;;4941319;28;21907;-62
2022/10/06 00:50:52;;;;;;;1.10;1.10;;;;;;;;;;4921243;28;20195;-62
2022/10/06 00:53:18;;;;;;;1.00;1.00;;;;;;;;;;4927497;28;20191;-62
2022/10/06 00:55:44;;;;;;;1.10;1.10;;;;;;;;;;4929419;28;20206;-60
2022/10/06 00:58:10;;;;;;;1.10;1.10;;;;;;;;;;4954710;28;20191;-61
2022/10/06 01:00:36;;;;;;;1.40;1.40;;;;;;;;;;4956330;28;20184;-61
2022/10/06 01:03:02;;;;;;;1.20;1.20;;;;;;;;;;4943684;28;20209;-62
2022/10/06 01:05:29;;;;;;;1.10;1.10;;;;;;;;;;4945600;28;20592;-61
2022/10/06 01:07:55;;;;;;;1.00;1.00;;;;;;;;;;4925566;28;20192;-61
2022/10/06 01:10:21;;;;;;;1.00;1.00;;;;;;;;;;4941253;28;20226;-61
2022/10/06 01:12:47;;;;;;;1.20;1.20;;;;;;;;;;4945542;28;20214;-61
2022/10/06 01:15:13;;;;;;;1.00;1.00;;;;;;;;;;4944708;28;20223;-62
2022/10/06 01:17:46;;;;;;;1.10;1.10;;;;;;;;;;4970484;28;20551;-60
2022/10/06 01:20:14;;;;;;;1.00;1.00;;;;;;;;;;4949026;28;20183;-61
2022/10/06 01:22:42;;;;;;;1.30;1.30;;;;;;;;;;4927571;28;20219;-62
2022/10/06 01:25:08;;;;;;;1.13;1.13;;;;;;;;;;4930845;28;20279;-61
2022/10/06 01:27:34;;;;;;;1.40;1.40;;;;;;;;;;4949969;28;20195;-61
2022/10/06 01:30:00;;;;;;;1.10;1.10;;;;;;;;;;4940126;28;20253;-61
2022/10/06 01:32:26;;;;;;;0.90;0.90;;;;;;;;;;4947396;28;20208;-60
2022/10/06 01:34:52;;;;;;;1.00;1.00;;;;;;;;;;4941170;28;20187;-62
2022/10/06 01:37:18;;;;;;;1.00;1.00;;;;;;;;;;4947314;28;20706;-61
2022/10/06 01:39:44;;;;;;;1.20;1.20;;;;;;;;;;4953253;28;20261;-62
2022/10/06 01:42:10;;;;;;;1.60;1.60;;;;;;;;;;4957094;28;20196;-62
2022/10/06 01:44:36;;;;;;;1.10;1.10;;;;;;;;;;4955597;28;20218;-62
2022/10/06 01:47:05;;;;;;;1.30;1.30;;;;;;;;;;4949174;28;20200;-62
2022/10/06 01:49:31;;;;;;;1.23;1.23;;;;;;;;;;4941779;28;20238;-61
2022/10/06 01:51:57;;;;;;;1.10;1.10;;;;;;;;;;4947397;28;20190;-62
2022/10/06 01:54:23;;;;;;;1.50;1.50;;;;;;;;;;4942532;28;20431;-61
2022/10/06 01:56:49;;;;;;;1.10;1.10;;;;;;;;;;4948059;28;20245;-61
2022/10/06 01:59:15;;;;;;;1.20;1.20;;;;;;;;;;4957493;28;20665;-61
2022/10/06 02:01:41;;;;;;;1.20;1.20;;;;;;;;;;4958332;28;20195;-61
2022/10/06 02:04:07;;;;;;;1.10;1.10;;;;;;;;;;4958117;28;20218;-61
2022/10/06 02:06:33;;;;;;;1.20;1.20;;;;;;;;;;4958399;28;20866;-61
2022/10/06 02:08:59;;;;;;;1.10;1.10;;;;;;;;;;4950050;28;20207;-62
2022/10/06 02:11:25;;;;;;;1.07;1.07;;;;;;;;;;4957751;28;20202;-61
2022/10/06 02:13:51;;;;;;;0.90;0.90;;;;;;;;;;4955736;28;20183;-61
2022/10/06 02:16:17;;;;;;;1.10;1.10;;;;;;;;;;4959204;28;20288;-61
2022/10/06 02:18:44;;;;;;;0.73;0.73;;;;;;;;;;4959564;28;20210;-61
2022/10/06 02:21:17;;;;;;;0.90;0.90;;;;;;;;;;4953275;28;20928;-61
2022/10/06 02:23:43;;;;;;;1.10;1.10;;;;;;;;;;4956658;28;20553;-61
2022/10/06 02:26:09;;;;;;;1.27;1.27;;;;;;;;;;4951374;28;20195;-62
2022/10/06 02:28:35;;;;;;;1.00;1.00;;;;;;;;;;4957511;28;20223;-61
2022/10/06 02:31:06;;;;;;;1.00;1.00;;;;;;;;;;4953270;28;20237;-61
2022/10/06 02:33:32;;;;;;;1.40;1.40;;;;;;;;;;4948760;28;20283;-61
2022/10/06 02:35:58;;;;;;;1.10;1.10;;;;;;;;;;4940619;28;20186;-61
2022/10/06 02:38:24;;;;;;;1.20;1.20;;;;;;;;;;4948869;28;20201;-61
2022/10/06 02:40:50;;;;;;;1.40;1.40;;;;;;;;;;4950016;28;20187;-61
2022/10/06 02:43:16;;;;;;;1.47;1.47;;;;;;;;;;4941348;28;20200;-61
2022/10/06 02:45:42;;;;;;;1.20;1.20;;;;;;;;;;4937066;28;20191;-61
2022/10/06 02:48:10;;;;;;;1.57;1.57;;;;;;;;;;4943830;28;20488;-61
2022/10/06 02:50:37;;;;;;;1.30;1.30;;;;;;;;;;4939846;28;20203;-62
2022/10/06 02:53:07;;;;;;;1.50;1.50;;;;;;;;;;4940025;28;20193;-61
2022/10/06 02:55:33;;;;;;;1.30;1.30;;;;;;;;;;4940128;28;20191;-61
2022/10/06 02:57:59;;;;;;;1.30;1.30;;;;;;;;;;4945730;28;20202;-61
2022/10/06 03:00:25;;;;;;;1.43;1.43;;;;;;;;;;4957643;28;21310;-61
2022/10/06 03:02:52;;;;;;;1.40;1.40;;;;;;;;;;4946394;28;20210;-61
2022/10/06 03:05:18;;;;;;;1.57;1.57;;;;;;;;;;4943829;28;20226;-61
2022/10/06 03:07:44;;;;;;;1.60;1.60;;;;;;;;;;4939418;28;20205;-61
2022/10/06 03:10:10;;;;;;;1.40;1.40;;;;;;;;;;4940697;28;20784;-60
2022/10/06 03:12:36;;;;;;;1.40;1.40;;;;;;;;;;4943562;28;20188;-61
2022/10/06 03:15:02;;;;;;;1.57;1.57;;;;;;;;;;4938306;28;20250;-60
2022/10/06 03:17:28;;;;;;;1.57;1.57;;;;;;;;;;4925943;28;20187;-61
2022/10/06 03:19:55;;;;;;;1.10;1.10;;;;;;;;;;4933722;28;20202;-61
2022/10/06 03:22:21;;;;;;;1.40;1.40;;;;;;;;;;4936369;28;20489;-62
2022/10/06 03:24:47;;;;;;;1.50;1.50;;;;;;;;;;4940327;28;20640;-61
2022/10/06 03:27:13;;;;;;;1.20;1.20;;;;;;;;;;4929283;28;20203;-62
2022/10/06 03:29:39;;;;;;;1.20;1.20;;;;;;;;;;4953697;28;20218;-61
2022/10/06 03:32:05;;;;;;;1.10;1.10;;;;;;;;;;4951516;28;20851;-61
2022/10/06 03:34:31;;;;;;;0.80;0.80;;;;;;;;;;4945884;28;20751;-61
2022/10/06 03:36:57;;;;;;;0.80;0.80;;;;;;;;;;4940398;28;20513;-62
2022/10/06 03:39:23;;;;;;;0.70;0.70;;;;;;;;;;4950772;28;20731;-62
2022/10/06 03:41:49;;;;;;;0.80;0.80;;;;;;;;;;4953533;28;20200;-61
2022/10/06 03:44:15;;;;;;;0.90;0.90;;;;;;;;;;4945160;28;20190;-62
2022/10/06 03:46:41;;;;;;;1.50;1.50;;;;;;;;;;4945356;28;20622;-61
2022/10/06 03:49:07;;;;;;;1.50;1.50;;;;;;;;;;4951162;28;20689;-61
2022/10/06 03:51:34;;;;;;;1.90;1.80;;;;;;;;;;4953904;28;20271;-61
2022/10/06 03:54:00;;;;;;;2.07;1.97;;;;;;;;;;4951842;28;20187;-61
2022/10/06 03:56:27;;;;;;;1.87;1.77;;;;;;;;;;4945446;28;20194;-60
2022/10/06 03:58:58;;;;;;;1.60;1.60;;;;;;;;;;4954993;28;20194;-60
2022/10/06 04:01:25;;;;;;;1.90;1.80;;;;;;;;;;4949723;28;20195;-61
2022/10/06 04:03:51;;;;;;;1.87;1.77;;;;;;;;;;4950392;28;20191;-61
2022/10/06 04:06:17;;;;;;;1.63;1.63;;;;;;;;;;4939098;28;20229;-61
2022/10/06 04:08:44;;;;;;;1.97;1.87;;;;;;;;;;4934816;28;20215;-61
2022/10/06 04:11:10;;;;;;;1.70;1.70;;;;;;;;;;4941633;28;20591;-61
2022/10/06 04:13:36;;;;;;;1.87;1.77;;;;;;;;;;4933192;28;20298;-61
2022/10/06 04:16:09;;;;;;;1.30;1.30;;;;;;;;;;4931402;28;20239;-61
2022/10/06 04:18:35;;;;;;;1.13;1.13;;;;;;;;;;4936824;28;20576;-61
2022/10/06 04:21:00;;;;;;;1.90;1.80;;;;;;;;;;4940768;28;20190;-61
2022/10/06 04:23:26;;;;;;;1.60;1.60;;;;;;;;;;4933933;28;20190;-61
2022/10/06 04:26:02;;;;;;;1.50;1.50;;;;;;;;;;4920255;28;20191;-61
2022/10/06 04:28:28;;;;;;;1.60;1.60;;;;;;;;;;4944908;28;20193;-61
2022/10/06 04:30:58;;;;;;;1.70;1.70;;;;;;;;;;4948026;28;20191;-62
2022/10/06 04:33:24;;;;;;;2.10;2.00;;;;;;;;;;4954141;28;20730;-61
2022/10/06 04:35:59;;;;;;;1.50;1.50;;;;;;;;;;4952479;28;20187;-61
2022/10/06 04:38:26;;;;;;;1.40;1.40;;;;;;;;;;4953475;28;20267;-61
2022/10/06 04:40:52;;;;;;;2.07;1.97;;;;;;;;;;4950875;28;20183;-61
2022/10/06 04:43:18;;;;;;;1.60;1.60;;;;;;;;;;4944910;28;20660;-61
2022/10/06 04:45:44;;;;;;;1.80;1.70;;;;;;;;;;4937743;28;20613;-61
2022/10/06 04:48:10;;;;;;;1.87;1.77;;;;;;;;;;4930009;28;20723;-61
2022/10/06 04:50:36;;;;;;;1.70;1.70;;;;;;;;;;4931121;28;20719;-61
2022/10/06 04:53:02;;;;;;;1.83;1.73;;;;;;;;;;4933527;28;20657;-61
2022/10/06 04:55:28;;;;;;;1.50;1.50;;;;;;;;;;4936375;28;20297;-61
2022/10/06 04:57:54;;;;;;;1.50;1.50;;;;;;;;;;4938207;28;20641;-61
2022/10/06 05:00:24;;;;;;;1.50;1.50;;;;;;;;;;4942918;28;20195;-62
2022/10/06 05:02:50;;;;;;;2.27;2.17;;;;;;;;;;4949477;28;20194;-61
2022/10/06 05:05:16;;;;;;;2.00;1.90;;;;;;;;;;4951862;28;20706;-61
2022/10/06 05:07:45;;;;;;;1.73;1.70;;;;;;;;;;4935158;28;20195;-62
2022/10/06 05:10:11;;;;;;;1.80;1.70;;;;;;;;;;4938171;28;20210;-61
2022/10/06 05:12:37;;;;;;;1.57;1.57;;;;;;;;;;4938497;28;20237;-61
2022/10/06 05:15:03;;;;;;;1.83;1.73;;;;;;;;;;4942074;28;20199;-62
2022/10/06 05:17:29;;;;;;;1.50;1.50;;;;;;;;;;4940775;28;20479;-61
2022/10/06 05:19:55;;;;;;;1.80;1.70;;;;;;;;;;4939301;28;20256;-61
2022/10/06 05:22:21;;;;;;;1.77;1.70;;;;;;;;;;4936157;28;20827;-62
2022/10/06 05:24:49;;;;;;;1.57;1.57;;;;;;;;;;4935760;28;20764;-62
2022/10/06 05:27:16;;;;;;;1.87;1.77;;;;;;;;;;4937917;28;20205;-62
2022/10/06 05:29:42;;;;;;;1.50;1.50;;;;;;;;;;4938295;28;20203;-61
2022/10/06 05:32:08;;;;;;;1.30;1.30;;;;;;;;;;4948589;28;20679;-62
2022/10/06 05:34:34;;;;;;;1.40;1.40;;;;;;;;;;4952095;28;20649;-62
2022/10/06 05:37:00;;;;;;;1.50;1.50;;;;;;;;;;4940326;28;20194;-61
2022/10/06 05:39:26;;;;;;;1.20;1.20;;;;;;;;;;4931929;28;20728;-62
2022/10/06 05:41:52;;;;;;;1.53;1.53;;;;;;;;;;4944022;28;20832;-61
2022/10/06 05:44:18;;;;;;;1.70;1.70;;;;;;;;;;4937292;28;20734;-62
2022/10/06 05:46:44;;;;;;;1.40;1.40;;;;;;;;;;4934095;28;20668;-62
2022/10/06 05:49:11;;;;;;;1.30;1.30;;;;;;;;;;4943649;28;20210;-61
2022/10/06 05:51:40;;;;;;;1.43;1.43;;;;;;;;;;4926616;28;20740;-62
2022/10/06 05:54:06;;;;;;;1.50;1.50;;;;;;;;;;4942493;28;20380;-61
2022/10/06 05:56:33;;;;;;;1.50;1.50;;;;;;;;;;4934599;28;20191;-62
2022/10/06 05:58:59;;;;;;;1.30;1.30;;;;;;;;;;4937013;28;20202;-62
2022/10/06 06:01:26;;;;;;;1.50;1.50;;;;;;;;;;4938918;28;20219;-62
2022/10/06 06:03:53;;;;;;;1.60;1.60;;;;;;;;;;4950744;28;20551;-62
2022/10/06 06:06:22;;;;;;;1.27;1.27;;;;;;;;;;4942114;28;20228;-61
2022/10/06 06:08:51;;;;;;;1.50;1.50;;;;;;;;;;4931672;28;20338;-62
2022/10/06 06:11:17;;;;;;;1.67;1.67;;;;;;;;;;4935891;28;22490;-62
2022/10/06 06:13:43;;;;;;;1.50;1.50;;;;;;;;;;4926186;28;20658;-63
2022/10/06 06:16:12;;;;;;;1.50;1.50;;;;;;;;;;4930423;28;20641;-62
2022/10/06 06:18:38;;;;;;;1.50;1.50;;;;;;;;;;4919186;28;20188;-61
2022/10/06 06:21:05;;;;;;;1.60;1.60;;;;;;;;;;4943197;28;20233;-61
2022/10/06 06:23:35;;;;;;;1.50;1.50;;;;;;;;;;4937480;28;20196;-61
2022/10/06 06:26:05;;;;;;;1.40;1.40;;;;;;;;;;4940321;28;20266;-62
2022/10/06 06:28:31;;;;;;;1.40;1.40;;;;;;;;;;4943483;28;20208;-62
2022/10/06 06:30:58;;;;;;;1.30;1.30;;;;;;;;;;4958899;28;20338;-61
2022/10/06 06:33:24;;;;;;;1.40;1.40;;;;;;;;;;4970448;28;20859;-61
2022/10/06 06:35:50;;;;;;;1.50;1.50;;;;;;;;;;4952094;28;20199;-61
2022/10/06 06:38:17;;;;;;;1.83;1.73;;;;;;;;;;4939729;28;20202;-62
2022/10/06 06:40:43;;;;;;;1.60;1.60;;;;;;;;;;4947042;28;20234;-61
2022/10/06 06:43:11;;;;;;;1.30;1.30;;;;;;;;;;4941020;28;22045;-61
2022/10/06 06:45:37;;;;;;;1.50;1.50;;;;;;;;;;4938934;28;20187;-62
2022/10/06 06:48:04;;;;;;;1.40;1.40;;;;;;;;;;4932786;28;20270;-62
2022/10/06 06:50:30;;;;;;;1.20;1.20;;;;;;;;;;4929288;28;20298;-62
2022/10/06 06:52:56;;;;;;;1.30;1.30;;;;;;;;;;4937864;28;20191;-61
2022/10/06 06:55:22;;;;;;;1.40;1.40;;;;;;;;;;4944933;28;20613;-62
2022/10/06 06:57:48;;;;;;;1.50;1.50;;;;;;;;;;4934127;28;20226;-61
2022/10/06 07:00:15;;;;;;;1.20;1.20;;;;;;;;;;4945374;28;20196;-62
2022/10/06 07:02:41;;;;;;;1.50;1.50;;;;;;;;;;4948082;28;20195;-62
2022/10/06 07:05:07;;;;;;;1.50;1.50;;;;;;;;;;4939992;28;20226;-61
2022/10/06 07:07:34;;;;;;;1.40;1.40;;;;;;;;;;4956212;28;20202;-62
2022/10/06 07:10:00;;;;;;;1.60;1.60;;;;;;;;;;4954955;28;20227;-62
2022/10/06 07:12:26;;;;;;;1.57;1.57;;;;;;;;;;4953978;28;20225;-62
2022/10/06 07:25:51;;;;;;;1.50;1.50;;;;;;;;;;4950391;28;20230;-62
2022/10/06 07:28:17;;;;;;;1.60;1.60;;;;;;;;;;4954655;28;20187;-62
2022/10/06 07:30:43;;;;;;;1.50;1.50;;;;;;;;;;4958163;28;20695;-61
2022/10/06 07:33:09;;;;;;;1.50;1.50;;;;;;;;;;4955548;28;20654;-63
2022/10/06 07:35:35;;;;;;;1.50;1.50;;;;;;;;;;4946210;28;20197;-62
2022/10/06 07:38:06;;;;;;;1.60;1.60;;;;;;;;;;4925662;28;20664;-62
2022/10/06 07:40:32;;;;;;;1.47;1.47;;;;;;;;;;4949669;28;20187;-62
2022/10/06 07:42:58;;;;;;;1.20;1.20;;;;;;;;;;4936950;28;20779;-62
2022/10/06 07:45:37;;;;;;;1.33;1.33;;;;;;;;;;4928010;28;20566;-63
2022/10/06 07:48:04;;;;;;;1.43;1.43;;;;;;;;;;4948026;28;20186;-62
2022/10/06 07:50:30;;;;;;;1.70;1.70;;;;;;;;;;4946333;28;20239;-71
2022/10/06 07:52:56;;;;;;;1.73;1.70;;;;;;;;;;4934444;28;21314;-62
2022/10/06 07:55:22;;;;;;;1.60;1.60;;;;;;;;;;4941527;28;20202;-62
2022/10/06 07:57:49;;;;;;;1.40;1.40;;;;;;;;;;4939962;28;20184;-65
2022/10/06 08:00:18;;;;;;;1.30;1.30;;;;;;;;;;4944053;28;20666;-63
2022/10/06 08:02:44;;;;;;;1.40;1.40;;;;;;;;;;4949622;28;20214;-65
2022/10/06 08:05:11;;;;;;;1.50;1.50;;;;;;;;;;4925663;28;20891;-64
2022/10/06 08:07:36;;;;;;;1.60;1.60;;;;;;;;;;4951012;28;20684;-62
2022/10/06 08:10:03;;;;;;;1.80;1.70;;;;;;;;;;4933681;28;20299;-65
2022/10/06 08:12:32;;;;;;;1.33;1.33;;;;;;;;;;4939547;28;20192;-65
2022/10/06 08:15:02;;;;;;;1.43;1.43;;;;;;;;;;4936185;28;20187;-65
2022/10/06 08:17:28;;;;;;;1.30;1.30;;;;;;;;;;4931630;28;20188;-65
2022/10/06 08:19:53;;;;;;;1.40;1.40;;;;;;;;;;4932528;28;20269;-66
2022/10/06 08:22:21;;;;;;;1.30;1.30;;;;;;;;;;4934602;28;20668;-63
2022/10/06 08:24:47;;;;;;;1.20;1.20;;;;;;;;;;4923320;28;20198;-65
2022/10/06 08:27:13;;;;;;;1.47;1.47;;;;;;;;;;4939473;28;20207;-66
2022/10/06 08:29:39;;;;;;;1.40;1.40;;;;;;;;;;4942688;28;20561;-66
2022/10/06 08:32:04;;;;;;;1.00;1.00;;;;;;;;;;4944577;28;20191;-65
2022/10/06 08:34:30;;;;;;;1.33;1.33;;;;;;;;;;4938782;28;20562;-67
2022/10/06 08:36:57;;;;;;;1.20;1.20;;;;;;;;;;4926751;28;21066;-65
2022/10/06 08:39:23;;;;;;;1.20;1.20;;;;;;;;;;4940810;28;20804;-67
2022/10/06 08:41:50;;;;;;;1.30;1.30;;;;;;;;;;4930463;28;20202;-70
2022/10/06 08:44:30;;;;;;;1.20;1.20;;;;;;;;;;4919446;28;20226;-65
2022/10/06 08:46:59;;;;;;;1.30;1.30;;;;;;;;;;4905438;28;20187;-63
2022/10/06 08:49:25;;;;;;;1.40;1.40;;;;;;;;;;4917013;28;20625;-67
2022/10/06 08:51:51;;;;;;;1.60;1.60;;;;;;;;;;4941694;28;20190;-69
2022/10/06 08:54:21;;;;;;;1.53;1.53;;;;;;;;;;4943987;28;20266;-70
2022/10/06 08:56:53;;;;;;;1.30;1.30;;;;;;;;;;4935347;28;20223;-62
2022/10/06 08:59:19;;;;;;;1.10;1.10;;;;;;;;;;4943203;28;21297;-61
2022/10/06 09:01:46;;;;;;;1.30;1.30;;;;;;;;;;4936074;28;20837;-61
2022/10/06 09:04:27;;;;;;;1.20;1.20;;;;;;;;;;4926659;28;20292;-60
2022/10/06 09:06:58;;;;;;;1.20;1.20;;;;;;;;;;4929775;28;20237;-61
2022/10/06 09:09:44;;;;;;;1.50;1.50;;;;;;;;;;4939947;28;20207;-62
2022/10/06 09:12:17;;;;;;;1.10;1.10;;;;;;;;;;4949057;28;20261;-62
2022/10/06 09:14:46;;;;;;;1.20;1.20;;;;;;;;;;4935186;28;20202;-63
2022/10/06 09:17:14;;;;;;;0.90;0.90;;;;;;;;;;4898489;28;20246;-62
2022/10/06 09:19:41;;;;;;;1.20;1.20;;;;;;;;;;4895870;28;20192;-62
2022/10/06 09:22:12;;;;;;;1.20;1.20;;;;;;;;;;4902376;28;20207;-63
2022/10/06 09:24:40;;;;;;;1.15;1.15;;;;;;;;;;4916272;28;20191;-62
2022/10/06 09:27:22;;;;;;;1.20;1.20;;;;;;;;;;4925802;28;20238;-62
2022/10/06 09:29:48;;;;;;;1.30;1.30;;;;;;;;;;4922713;28;20644;-62
2022/10/06 09:32:18;;;;;;;1.30;1.30;;;;;;;;;;4917051;28;20196;-61
2022/10/06 09:34:50;;;;;;;1.30;1.30;;;;;;;;;;4884940;28;20208;-62
2022/10/06 09:37:16;;;;;;;1.30;1.30;;;;;;;;;;4910993;28;20664;-62
2022/10/06 09:39:43;;;;;;;1.30;1.30;;;;;;;;;;4927166;28;20196;-62
2022/10/06 09:42:09;;;;;;;1.30;1.30;;;;;;;;;;4907938;28;20195;-62
2022/10/06 09:44:51;;;;;;;1.30;1.30;;;;;;;;;;4927067;28;20200;-62
2022/10/06 09:47:33;;;;;;;1.10;1.10;;;;;;;;;;4919344;28;20632;-62
2022/10/06 09:50:13;;;;;;;1.20;1.20;;;;;;;;;;4901887;28;20231;-63
2022/10/06 09:52:39;;;;;;;1.20;1.20;;;;;;;;;;4920677;28;20250;-62
2022/10/06 09:55:15;;;;;;;0.80;0.80;;;;;;;;;;4911064;28;20212;-62
2022/10/06 09:57:54;;;;;;;0.80;0.80;;;;;;;;;;4915481;28;20204;-65
2022/10/06 10:00:28;;;;;;;0.80;0.80;;;;;;;;;;4911032;28;20203;-57
2022/10/06 10:02:58;;;;;;;1.30;1.30;;;;;;;;;;4917605;28;20788;-62
2022/10/06 10:05:24;;;;;;;1.27;1.27;;;;;;;;;;4917963;28;20220;-61
2022/10/06 10:08:08;;;;;;;1.25;1.25;;;;;;;;;;4910418;28;20203;-61
2022/10/06 10:10:35;;;;;;;1.20;1.20;;;;;;;;;;4917717;28;20235;-62
2022/10/06 10:13:01;;;;;;;1.20;1.20;;;;;;;;;;4932240;28;20186;-61
2022/10/06 10:15:39;;;;;;;1.20;1.20;;;;;;;;;;4911065;28;20653;-62
2022/10/06 10:18:05;;;;;;;1.20;1.20;;;;;;;;;;4910020;28;20211;-61
2022/10/06 10:20:35;;;;;;;1.25;1.25;;;;;;;;;;4923404;28;20334;-63
2022/10/06 10:23:20;;;;;;;1.10;1.10;;;;;;;;;;4909020;28;20937;-62
2022/10/06 10:25:52;;;;;;;1.10;1.10;;;;;;;;;;4931663;28;20196;-61
2022/10/06 10:28:31;;;;;;;1.13;1.13;;;;;;;;;;4902910;28;20231;-62
2022/10/06 10:30:57;;;;;;;1.10;1.10;;;;;;;;;;4926865;28;20285;-62
2022/10/06 10:33:30;;;;;;;1.23;1.23;;;;;;;;;;4910688;28;20196;-62
2022/10/06 10:35:56;;;;;;;1.10;1.10;;;;;;;;;;4904972;28;20251;-63
2022/10/06 10:38:28;;;;;;;2.35;2.25;;;;;;;;;;4898784;28;20805;-62
2022/10/06 10:40:54;;;;;;;1.10;1.10;;;;;;;;;;4914220;28;20203;-62
2022/10/06 10:43:21;;;;;;;1.17;1.17;;;;;;;;;;4910407;28;20240;-62
2022/10/06 10:45:51;;;;;;;1.02;1.02;;;;;;;;;;4902562;28;20793;-61
2022/10/06 10:48:35;;;;;;;1.00;1.00;;;;;;;;;;4904009;28;20185;-61
2022/10/06 10:51:04;;;;;;;1.10;1.10;;;;;;;;;;4909899;28;20204;-62
2022/10/06 10:53:46;;;;;;;1.00;1.00;;;;;;;;;;4911217;28;20192;-62
2022/10/06 10:56:13;;;;;;;1.05;1.05;;;;;;;;;;4901718;28;20188;-61
2022/10/06 10:58:40;;;;;;;1.10;1.10;;;;;;;;;;4892949;28;20711;-62
2022/10/06 11:01:15;;;;;;;1.10;1.10;;;;;;;;;;4908016;28;20199;-62
2022/10/06 11:03:41;;;;;;;1.15;1.15;;;;;;;;;;4907783;28;20200;-63
2022/10/06 11:06:12;;;;;;;1.20;1.20;;;;;;;;;;4908949;28;20224;-62
2022/10/06 11:08:49;;;;;;;1.10;1.10;;;;;;;;;;4907186;28;20637;-61
2022/10/06 11:11:17;;;;;;;1.10;1.10;;;;;;;;;;4913531;28;20192;-63
2022/10/06 11:13:51;;;;;;;1.20;1.20;;;;;;;;;;4913716;28;20203;-62
2022/10/06 11:16:24;;;;;;;1.20;1.20;;;;;;;;;;4895982;28;20302;-61
2022/10/06 11:18:56;;;;;;;1.10;1.10;;;;;;;;;;4907513;28;21043;-62
2022/10/06 11:21:22;;;;;;;1.10;1.10;;;;;;;;;;4903717;28;20552;-62
2022/10/06 11:24:01;;;;;;;1.00;1.00;;;;;;;;;;4935646;28;21045;-61
2022/10/06 11:26:39;;;;;;;1.20;1.20;;;;;;;;;;4933900;28;20299;-62
2022/10/06 11:29:18;;;;;;;1.10;1.10;;;;;;;;;;4924533;28;20254;-62
2022/10/06 11:31:53;;;;;;;1.10;1.10;;;;;;;;;;4914833;28;20253;-62
2022/10/06 11:34:19;;;;;;;1.20;1.20;;;;;;;;;;4937825;28;20207;-62
2022/10/06 11:36:51;;;;;;;1.10;1.10;;;;;;;;;;4958016;28;20215;-61
2022/10/06 11:39:30;;;;;;;1.10;1.10;;;;;;;;;;4938886;28;20206;-62
2022/10/06 11:42:02;;;;;;;1.20;1.20;;;;;;;;;;4916572;28;20698;-61
2022/10/06 11:44:31;;;;;;;1.10;1.10;;;;;;;;;;4926479;28;20202;-61
2022/10/06 11:47:18;;;;;;;1.20;1.20;;;;;;;;;;4902974;28;21158;-62
2022/10/06 11:49:44;;;;;;;1.08;1.08;;;;;;;;;;4943344;28;20207;-60
2022/10/06 11:52:10;;;;;;;1.10;1.10;;;;;;;;;;4924865;28;20229;-61
2022/10/06 11:54:39;;;;;;;1.00;1.00;;;;;;;;;;4935098;28;20405;-61
2022/10/06 11:57:26;;;;;;;1.05;1.05;;;;;;;;;;4931815;28;20194;-59
2022/10/06 12:00:01;;;;;;;1.10;1.10;;;;;;;;;;4928708;28;20238;-59
2022/10/06 12:02:40;;;;;;;1.20;1.20;;;;;;;;;;4941403;28;20197;-62
2022/10/06 12:05:09;;;;;;;1.10;1.10;;;;;;;;;;4939936;28;20191;-62
2022/10/06 12:07:56;;;;;;;1.35;1.35;;;;;;;;;;4943587;28;21060;-62
2022/10/06 12:10:28;;;;;;;1.10;1.10;;;;;;;;;;4946616;28;20244;-61
2022/10/06 12:13:03;;;;;;;0.60;0.60;;;;;;;;;;4940031;28;20207;-62
2022/10/06 12:15:49;;;;;;;0.70;0.70;;;;;;;;;;4925555;28;20191;-63
2022/10/06 12:18:30;;;;;;;0.70;0.70;;;;;;;;;;4916522;28;20203;-62
2022/10/06 12:21:11;;;;;;;0.68;0.68;;;;;;;;;;4941258;28;20192;-62
2022/10/06 12:23:39;;;;;;;0.70;0.70;;;;;;;;;;4937633;28;20203;-62
2022/10/06 12:26:23;;;;;;;0.70;0.70;;;;;;;;;;4928501;28;20561;-62
2022/10/06 12:28:50;;;;;;;1.20;1.20;;;;;;;;;;4926780;28;20223;-61
2022/10/06 12:31:31;;;;;;;2.60;2.45;;;;;;;;;;4908705;28;20199;-62
2022/10/06 12:33:57;;;;;;;1.20;1.20;;;;;;;;;;4915407;28;20198;-63
2022/10/06 12:36:27;;;;;;;1.10;1.10;;;;;;;;;;4920386;28;20183;-62
2022/10/06 12:39:04;;;;;;;1.10;1.10;;;;;;;;;;4934700;28;20193;-62
2022/10/06 12:41:49;;;;;;;1.10;1.10;;;;;;;;;;4913029;28;20197;-61
2022/10/06 12:44:22;;;;;;;1.20;1.20;;;;;;;;;;4926602;28;20179;-62
2022/10/06 12:46:48;;;;;;;1.10;1.10;;;;;;;;;;4915205;28;20524;-62
2022/10/06 12:49:34;;;;;;;1.20;1.20;;;;;;;;;;4936940;28;20202;-61
2022/10/06 12:52:04;;;;;;;1.13;1.13;;;;;;;;;;4932888;28;20221;-61
2022/10/06 12:54:33;;;;;;;1.13;1.13;;;;;;;;;;4941741;28;20183;-61
2022/10/06 12:57:00;;;;;;;1.15;1.15;;;;;;;;;;4953851;28;20183;-61
2022/10/06 12:59:34;;;;;;;1.10;1.10;;;;;;;;;;4934562;28;20194;-60
2022/10/06 13:02:01;;;;;;;1.20;1.20;;;;;;;;;;4947004;28;20187;-61
2022/10/06 13:04:33;;;;;;;1.40;1.40;;;;;;;;;;4939238;28;20254;-61
2022/10/06 13:07:01;;;;;;;1.33;1.33;;;;;;;;;;4933143;28;20214;-60
2022/10/06 13:09:27;;;;;;;1.40;1.40;;;;;;;;;;4945010;28;20297;-61
2022/10/06 13:11:53;;;;;;;1.20;1.20;;;;;;;;;;4939670;28;20239;-62
2022/10/06 13:14:19;;;;;;;1.35;1.35;;;;;;;;;;4945597;28;21241;-62
2022/10/06 13:16:45;;;;;;;1.27;1.27;;;;;;;;;;4927081;28;20233;-60
2022/10/06 13:19:15;;;;;;;1.20;1.20;;;;;;;;;;4951238;28;21471;-60
2022/10/06 13:21:41;;;;;;;1.30;1.30;;;;;;;;;;4945961;28;20793;-60
2022/10/06 13:24:15;;;;;;;1.40;1.40;;;;;;;;;;4928081;28;20366;-60
2022/10/06 13:26:41;;;;;;;1.33;1.33;;;;;;;;;;4943889;28;20238;-60
2022/10/06 13:29:17;;;;;;;1.45;1.45;;;;;;;;;;4947278;28;20223;-60
2022/10/06 13:31:48;;;;;;;1.40;1.40;;;;;;;;;;4949295;28;20197;-60
2022/10/06 13:34:14;;;;;;;1.40;1.40;;;;;;;;;;4951572;28;20184;-60
2022/10/06 13:36:41;;;;;;;1.60;1.60;;;;;;;;;;4927590;28;20302;-59
2022/10/06 13:39:10;;;;;;;1.60;1.60;;;;;;;;;;4930301;28;20187;-59
2022/10/06 13:41:36;;;;;;;1.63;1.60;;;;;;;;;;4942297;28;20199;-59
2022/10/06 13:44:04;;;;;;;1.30;1.30;;;;;;;;;;4929751;28;20286;-60
2022/10/06 13:46:31;;;;;;;1.40;1.40;;;;;;;;;;4946592;28;20860;-59
2022/10/06 13:49:09;;;;;;;1.40;1.40;;;;;;;;;;4942962;28;20187;-59
2022/10/06 13:51:35;;;;;;;1.48;1.48;;;;;;;;;;4932143;28;20210;-60
2022/10/06 13:54:03;;;;;;;1.40;1.40;;;;;;;;;;4952380;28;20183;-59
2022/10/06 13:56:33;;;;;;;1.30;1.30;;;;;;;;;;4954504;28;20218;-60
2022/10/06 13:59:15;;;;;;;1.50;1.50;;;;;;;;;;4948702;28;20263;-60
2022/10/06 14:01:41;;;;;;;1.40;1.40;;;;;;;;;;4940032;28;20190;-60
2022/10/06 14:04:14;;;;;;;1.35;1.35;;;;;;;;;;4956434;28;20195;-60
2022/10/06 14:06:53;;;;;;;1.30;1.30;;;;;;;;;;4935643;28;20593;-60
2022/10/06 14:09:23;;;;;;;1.30;1.30;;;;;;;;;;4930306;28;20747;-60
2022/10/06 14:11:50;;;;;;;1.52;1.52;;;;;;;;;;4919943;28;20731;-60
2022/10/06 14:14:16;;;;;;;1.40;1.40;;;;;;;;;;4936257;28;20369;-59
2022/10/06 14:16:46;;;;;;;1.40;1.40;;;;;;;;;;4924886;28;20309;-60
2022/10/06 14:19:31;;;;;;;1.40;1.40;;;;;;;;;;4943718;28;20200;-59
2022/10/06 14:21:58;;;;;;;1.40;1.40;;;;;;;;;;4913983;28;20198;-59
2022/10/06 14:24:27;;;;;;;1.45;1.45;;;;;;;;;;4935165;28;20187;-59
2022/10/06 14:26:54;;;;;;;1.40;1.40;;;;;;;;;;4938535;28;20198;-60
2022/10/06 14:29:21;;;;;;;1.40;1.40;;;;;;;;;;4952979;28;20771;-59
2022/10/06 14:31:47;;;;;;;1.40;1.40;;;;;;;;;;4933457;28;20195;-59
2022/10/06 14:34:14;;;;;;;1.40;1.40;;;;;;;;;;4926762;28;20204;-59
2022/10/06 14:36:40;;;;;;;1.70;1.70;;;;;;;;;;4944251;28;20183;-59
2022/10/06 14:39:06;;;;;;;1.52;1.42;;;;;;;;;;4935950;28;20319;-60
2022/10/06 14:41:33;;;;;;;1.52;1.52;;;;;;;;;;4939082;28;20233;-60
2022/10/06 14:44:04;;;;;;;1.60;1.60;;;;;;;;;;4927875;28;20198;-60
2022/10/06 14:46:30;;;;;;;1.50;1.50;;;;;;;;;;4925178;28;20183;-59
2022/10/06 14:48:57;;;;;;;1.50;1.50;;;;;;;;;;4923407;28;20199;-60
2022/10/06 14:51:24;;;;;;;1.60;1.60;;;;;;;;;;4935509;28;20235;-59
2022/10/06 14:53:53;;;;;;;1.70;1.70;;;;;;;;;;4936309;28;20612;-60
2022/10/06 14:56:19;;;;;;;1.50;1.50;;;;;;;;;;4942246;28;20183;-60
2022/10/06 14:58:45;;;;;;;1.58;1.58;;;;;;;;;;4946764;28;20191;-59
2022/10/06 15:01:13;;;;;;;1.50;1.50;;;;;;;;;;4937676;28;20184;-59
2022/10/06 15:03:39;;;;;;;1.50;1.50;;;;;;;;;;4935681;28;20219;-60